Time;durP1;ratioP1;P1;durP2;ratioP2;P2;SDS_P1;SDS_P2;PMS_P1;PMS_P2;Temp;Humidity;BMP_temperature;BMP_pressure;BME280_temperature;BME280_humidity;BME280_pressure;Samples;Min_cycle;Max_cycle;Signal;HPM_P1;HPM_P2
2022/07/10 00:01:21;;;;;;;2.92;1.77;;;;;;;14.27;77.12;102667.16;4897658;29;20032;-68
2022/07/10 00:03:49;;;;;;;12.40;2.95;;;;;;;14.27;76.62;102654.56;4880443;29;20076;-67
2022/07/10 00:06:15;;;;;;;6.82;1.88;;;;;;;14.24;76.94;102661.13;4897308;29;20422;-68
2022/07/10 00:08:42;;;;;;;6.57;1.85;;;;;;;14.24;76.47;102669.16;4897378;29;20031;-68
2022/07/10 00:11:08;;;;;;;4.15;1.85;;;;;;;14.21;76.78;102671.38;4897350;29;20127;-68
2022/07/10 00:13:34;;;;;;;6.05;2.00;;;;;;;14.14;76.96;102667.72;4897130;29;20076;-68
2022/07/10 00:16:01;;;;;;;4.03;1.83;;;;;;;14.13;76.73;102668.75;4897122;29;20024;-68
2022/07/10 00:18:26;;;;;;;5.38;1.63;;;;;;;14.10;76.85;102669.09;4880271;29;20462;-68
2022/07/10 00:20:51;;;;;;;7.10;2.35;;;;;;;14.06;78.15;102660.53;4897320;29;20053;-68
2022/07/10 00:23:17;;;;;;;3.45;1.80;;;;;;;13.99;77.78;102660.41;4896826;29;20391;-68
2022/07/10 00:25:42;;;;;;;5.53;1.90;;;;;;;13.95;77.95;102659.09;4897017;29;20514;-68
2022/07/10 00:28:08;;;;;;;4.60;1.95;;;;;;;13.91;77.98;102656.91;4897152;29;20072;-68
2022/07/10 00:30:33;;;;;;;7.03;2.50;;;;;;;13.85;78.99;102650.41;4896688;29;20765;-68
2022/07/10 00:32:59;;;;;;;6.18;2.47;;;;;;;13.86;79.07;102654.78;4896893;29;20464;-68
2022/07/10 00:35:25;;;;;;;6.93;2.50;;;;;;;13.79;78.73;102667.22;4896992;29;20076;-68
2022/07/10 00:37:50;;;;;;;3.78;1.52;;;;;;;13.73;79.71;102662.53;4896767;29;20032;-68
2022/07/10 00:40:15;;;;;;;7.07;2.97;;;;;;;13.70;79.62;102652.13;4896721;29;20116;-68
2022/07/10 00:42:41;;;;;;;10.63;2.00;;;;;;;13.63;80.22;102649.34;4896798;29;20036;-68
2022/07/10 00:45:07;;;;;;;10.80;3.13;;;;;;;13.60;80.18;102652.38;4896260;29;20032;-68
2022/07/10 00:47:32;;;;;;;4.00;2.05;;;;;;;13.52;80.08;102642.50;4896601;29;20491;-68
2022/07/10 00:49:58;;;;;;;5.60;1.80;;;;;;;13.48;80.32;102643.84;4896722;29;20031;-68
2022/07/10 00:52:23;;;;;;;5.68;2.28;;;;;;;13.43;80.22;102645.34;4895815;29;20071;-67
2022/07/10 00:54:53;;;;;;;4.07;1.88;;;;;;;13.38;80.39;102645.88;4896536;29;20036;-68
2022/07/10 00:57:20;;;;;;;4.65;1.80;;;;;;;13.38;80.52;102649.38;4896534;29;20389;-68
2022/07/10 00:59:47;;;;;;;5.53;2.13;;;;;;;13.33;80.59;102634.81;4896452;29;20037;-68
2022/07/10 01:02:14;;;;;;;3.78;1.67;;;;;;;13.34;80.82;102634.66;4896192;29;20538;-68
2022/07/10 01:04:39;;;;;;;4.65;2.28;;;;;;;13.28;80.32;102629.13;4896196;29;20527;-68
2022/07/10 01:07:05;;;;;;;7.75;2.20;;;;;;;13.22;80.58;102619.06;4896328;29;20033;-68
2022/07/10 01:09:32;;;;;;;6.35;2.33;;;;;;;13.25;80.28;102621.41;4896281;29;20039;-68
2022/07/10 01:12:01;;;;;;;4.80;2.35;;;;;;;13.24;80.36;102617.06;4896444;29;20977;-68
2022/07/10 01:14:28;;;;;;;5.93;2.17;;;;;;;13.21;80.27;102618.25;4879024;29;20412;-68
2022/07/10 01:16:54;;;;;;;4.75;1.85;;;;;;;13.20;80.14;102616.56;4895239;29;20131;-68
2022/07/10 01:19:20;;;;;;;7.28;2.63;;;;;;;13.20;81.11;102611.19;4896142;29;20123;-68
2022/07/10 01:21:45;;;;;;;6.28;2.53;;;;;;;13.13;81.14;102605.69;4896277;29;20115;-68
2022/07/10 01:24:10;;;;;;;11.27;3.13;;;;;;;13.15;81.27;102611.72;4896140;29;20037;-68
2022/07/10 01:26:38;;;;;;;5.80;1.98;;;;;;;13.14;81.25;102609.22;4896091;29;20088;-68
2022/07/10 01:29:05;;;;;;;7.80;3.00;;;;;;;13.12;81.18;102614.72;4895905;29;20060;-68
2022/07/10 01:31:31;;;;;;;5.28;2.38;;;;;;;13.13;81.86;102613.75;4895891;29;20032;-67
2022/07/10 01:33:58;;;;;;;8.27;2.72;;;;;;;13.09;82.74;102614.25;4895403;29;20481;-67
2022/07/10 01:36:24;;;;;;;4.97;2.33;;;;;;;13.07;81.79;102618.94;4895399;29;20441;-68
2022/07/10 01:38:53;;;;;;;9.80;2.63;;;;;;;13.04;82.38;102621.94;4895758;29;20048;-68
2022/07/10 01:41:19;;;;;;;5.63;1.85;;;;;;;13.02;82.19;102623.94;4895889;29;20528;-68
2022/07/10 01:43:44;;;;;;;7.57;2.30;;;;;;;13.02;82.07;102619.47;4895871;29;20039;-68
2022/07/10 01:46:11;;;;;;;4.22;2.38;;;;;;;12.98;83.40;102609.25;4895674;29;20043;-68
2022/07/10 01:48:38;;;;;;;4.57;2.25;;;;;;;12.96;83.76;102613.94;4895571;29;20477;-68
2022/07/10 01:51:04;;;;;;;5.18;2.20;;;;;;;12.94;83.28;102617.63;4878257;29;20036;-68
2022/07/10 01:53:29;;;;;;;8.43;2.78;;;;;;;12.94;83.13;102617.63;4895066;29;20039;-67
2022/07/10 01:55:55;;;;;;;4.35;2.58;;;;;;;12.95;83.25;102613.09;4878605;29;20701;-68
2022/07/10 01:58:20;;;;;;;9.95;2.42;;;;;;;12.89;83.75;102593.19;4894420;29;20072;-67
2022/07/10 02:00:46;;;;;;;6.28;1.98;;;;;;;12.97;82.77;102604.88;4895422;29;20043;-68
2022/07/10 02:05:55;;;;;;;6.55;2.40;;;;;;;12.94;82.35;102590.84;4895680;29;20035;-68
2022/07/10 02:08:20;;;;;;;3.80;2.55;;;;;;;13.07;82.18;102602.84;4878527;29;20036;-67
2022/07/10 02:10:46;;;;;;;7.30;2.42;;;;;;;13.10;82.76;102603.38;4895302;29;20040;-68
2022/07/10 02:13:14;;;;;;;9.73;2.65;;;;;;;13.13;82.26;102608.38;4895128;29;20602;-68
2022/07/10 02:15:40;;;;;;;6.28;2.90;;;;;;;13.16;81.99;102599.16;4894975;29;20032;-68
2022/07/10 02:18:05;;;;;;;3.53;2.47;;;;;;;13.09;82.54;102576.75;4894845;29;20047;-68
2022/07/10 02:20:33;;;;;;;8.45;2.97;;;;;;;13.18;82.24;102596.31;4894972;29;20057;-68
2022/07/10 02:22:58;;;;;;;6.95;2.70;;;;;;;13.19;81.83;102598.00;4878570;29;20043;-68
2022/07/10 02:25:24;;;;;;;7.68;2.85;;;;;;;13.13;82.23;102596.84;4895104;29;20032;-68
2022/07/10 02:27:49;;;;;;;9.25;3.50;;;;;;;13.17;82.39;102603.50;4894878;29;20052;-68
2022/07/10 02:30:14;;;;;;;7.15;2.70;;;;;;;13.17;82.56;102606.19;4894994;29;20028;-68
2022/07/10 02:32:40;;;;;;;7.30;2.47;;;;;;;13.15;83.14;102610.88;4894851;29;20041;-67
2022/07/10 02:35:05;;;;;;;7.93;2.58;;;;;;;13.12;82.65;102608.53;4894786;29;20087;-68
2022/07/10 02:37:31;;;;;;;6.20;3.20;;;;;;;13.08;83.22;102602.69;4894787;29;20415;-68
2022/07/10 02:39:56;;;;;;;8.55;3.20;;;;;;;13.08;82.77;102605.38;4894852;29;20091;-68
2022/07/10 02:42:22;;;;;;;10.13;2.88;;;;;;;13.08;83.28;102602.69;4894585;29;20037;-68
2022/07/10 02:44:47;;;;;;;4.95;2.72;;;;;;;13.01;83.05;102595.50;4894651;29;20120;-68
2022/07/10 02:47:12;;;;;;;5.63;2.70;;;;;;;12.98;83.21;102585.97;4877922;29;20039;-68
2022/07/10 02:49:38;;;;;;;7.90;3.05;;;;;;;13.00;83.42;102594.69;4894616;29;20063;-68
2022/07/10 02:52:04;;;;;;;10.18;3.28;;;;;;;12.97;83.61;102589.66;4877710;29;20044;-68
2022/07/10 02:54:29;;;;;;;7.03;3.22;;;;;;;12.93;83.85;102591.00;4894107;29;20034;-68
2022/07/10 02:56:54;;;;;;;7.45;3.13;;;;;;;12.91;84.51;102590.31;4894039;29;20489;-68
2022/07/10 02:59:20;;;;;;;10.98;3.30;;;;;;;12.87;84.61;102587.16;4894099;29;20037;-68
2022/07/10 03:01:45;;;;;;;6.43;2.55;;;;;;;12.83;84.38;102582.31;4894228;29;20120;-68
2022/07/10 03:04:10;;;;;;;12.73;3.10;;;;;;;12.82;84.80;102583.31;4894256;29;20060;-68
2022/07/10 03:06:36;;;;;;;11.75;3.35;;;;;;;12.81;84.65;102589.66;4877279;29;20032;-68
2022/07/10 03:09:02;;;;;;;4.60;2.45;;;;;;;12.74;84.44;102586.00;4894325;29;20039;-68
2022/07/10 03:11:27;;;;;;;7.40;3.35;;;;;;;12.67;84.54;102578.63;4894268;29;20032;-68
2022/07/10 03:13:52;;;;;;;11.40;4.40;;;;;;;12.71;84.40;102582.66;4893999;29;20036;-68
2022/07/10 03:16:18;;;;;;;8.32;3.03;;;;;;;12.70;84.61;102577.44;4894286;29;21032;-68
2022/07/10 03:18:43;;;;;;;8.35;3.88;;;;;;;12.71;84.62;102581.81;4894243;29;20094;-68
2022/07/10 03:21:08;;;;;;;7.60;3.35;;;;;;;12.72;84.64;102584.31;4893969;29;20043;-68
2022/07/10 03:23:34;;;;;;;8.48;3.75;;;;;;;12.69;84.66;102581.16;4877237;29;20123;-67
2022/07/10 03:25:59;;;;;;;5.82;2.67;;;;;;;12.71;85.09;102574.63;4894117;29;20119;-68
2022/07/10 03:28:24;;;;;;;7.60;2.60;;;;;;;12.72;84.90;102583.47;4894072;29;20037;-67
2022/07/10 03:30:50;;;;;;;8.10;3.33;;;;;;;12.71;85.14;102582.66;4894058;29;20127;-68
2022/07/10 03:33:15;;;;;;;6.47;3.10;;;;;;;12.71;85.28;102582.66;4894032;29;20033;-68
2022/07/10 03:35:41;;;;;;;5.88;3.17;;;;;;;12.75;85.22;102577.78;4894040;29;20469;-67
2022/07/10 03:38:06;;;;;;;9.02;3.22;;;;;;;12.76;85.83;102566.09;4894044;29;20473;-68
2022/07/10 03:40:31;;;;;;;7.60;2.83;;;;;;;12.76;86.05;102567.91;4894173;29;20044;-68
2022/07/10 03:42:57;;;;;;;6.40;3.15;;;;;;;12.76;85.73;102570.59;4893988;29;20036;-67
2022/07/10 03:45:22;;;;;;;6.35;2.95;;;;;;;12.75;85.62;102568.94;4893907;29;20131;-68
2022/07/10 03:47:47;;;;;;;6.50;2.97;;;;;;;12.80;85.92;102569.25;4893986;29;20039;-68
2022/07/10 03:50:13;;;;;;;7.97;3.50;;;;;;;12.82;86.50;102564.56;4893951;29;20032;-68
2022/07/10 03:52:38;;;;;;;8.52;3.38;;;;;;;12.85;86.50;102569.59;4893671;29;20033;-68
2022/07/10 03:55:04;;;;;;;5.28;2.92;;;;;;;12.84;85.94;102563.41;4893752;29;20041;-67
2022/07/10 04:00:14;;;;;;;9.63;3.42;;;;;;;12.87;86.23;102559.56;4893744;29;20121;-67
2022/07/10 04:02:42;;;;;;;8.68;2.80;;;;;;;12.91;86.74;102559.03;4893523;29;20048;-67
2022/07/10 04:05:09;;;;;;;12.85;4.00;;;;;;;12.96;86.54;102568.41;4893622;29;20033;-68
2022/07/10 04:07:37;;;;;;;9.52;3.38;;;;;;;12.99;86.88;102568.06;4893937;29;20025;-67
2022/07/10 04:10:03;;;;;;;5.65;3.10;;;;;;;13.04;86.21;102574.56;4893858;29;20387;-68
2022/07/10 04:12:28;;;;;;;4.43;2.40;;;;;;;13.07;86.38;102574.25;4893568;29;20032;-68
2022/07/10 04:14:54;;;;;;;5.05;2.80;;;;;;;13.09;86.54;102564.19;4893740;29;20162;-67
2022/07/10 04:17:20;;;;;;;3.28;2.53;;;;;;;13.11;86.35;102564.84;4893703;29;20082;-68
2022/07/10 04:19:46;;;;;;;6.07;2.70;;;;;;;13.19;86.67;102561.31;4893758;29;20044;-68
2022/07/10 04:22:11;;;;;;;7.90;2.72;;;;;;;13.20;86.48;102557.63;4897032;29;20029;-68
2022/07/10 04:24:37;;;;;;;5.00;2.33;;;;;;;13.27;86.72;102563.16;4897170;29;20047;-68
2022/07/10 04:27:02;;;;;;;7.53;2.63;;;;;;;13.28;86.06;102570.19;4897131;29;20096;-68
2022/07/10 04:29:28;;;;;;;14.20;3.53;;;;;;;13.30;86.06;102558.28;4897003;29;20059;-68
2022/07/10 04:31:54;;;;;;;7.32;2.67;;;;;;;13.30;86.65;102560.97;4896958;29;20043;-68
2022/07/10 04:34:19;;;;;;;15.70;2.88;;;;;;;13.37;86.60;102561.13;4896786;29;20078;-68
2022/07/10 04:36:44;;;;;;;5.90;2.65;;;;;;;13.37;86.24;102558.44;4896643;29;20160;-68
2022/07/10 04:39:10;;;;;;;3.50;1.92;;;;;;;13.43;85.77;102571.13;4896799;29;20119;-68
2022/07/10 04:41:35;;;;;;;7.10;2.78;;;;;;;13.43;85.96;102564.94;4896655;29;20024;-68
2022/07/10 04:44:01;;;;;;;9.80;3.03;;;;;;;13.48;86.18;102568.78;4896792;29;20108;-68
2022/07/10 04:46:26;;;;;;;7.35;2.33;;;;;;;13.51;85.71;102567.59;4896947;29;20507;-68
2022/07/10 04:48:52;;;;;;;6.78;3.28;;;;;;;13.55;85.88;102566.25;4896834;29;20477;-68
2022/07/10 04:51:17;;;;;;;4.63;2.33;;;;;;;13.59;86.04;102564.88;4896702;29;20092;-68
2022/07/10 04:53:43;;;;;;;7.50;2.83;;;;;;;13.62;85.05;102566.38;4896513;29;20464;-68
2022/07/10 04:56:08;;;;;;;6.20;2.75;;;;;;;13.61;84.99;102567.41;4895953;29;20072;-68
2022/07/10 04:58:33;;;;;;;3.83;1.85;;;;;;;13.69;85.07;102572.72;4895958;29;20040;-68
2022/07/10 05:00:59;;;;;;;7.45;2.38;;;;;;;13.72;84.71;102565.16;4896435;29;20237;-68
2022/07/10 05:03:24;;;;;;;7.85;2.38;;;;;;;13.80;84.33;102566.97;4896271;29;20116;-68
2022/07/10 05:05:49;;;;;;;10.15;2.85;;;;;;;13.82;84.12;102570.31;4896413;29;20040;-68
2022/07/10 05:08:15;;;;;;;4.78;2.35;;;;;;;13.89;83.79;102582.00;4896313;29;20035;-68
2022/07/10 05:10:40;;;;;;;11.70;2.70;;;;;;;13.84;83.91;102570.13;4879531;29;20370;-68
2022/07/10 05:13:06;;;;;;;4.43;2.30;;;;;;;13.94;84.45;102584.16;4879279;29;20260;-67
2022/07/10 05:15:32;;;;;;;4.38;2.20;;;;;;;13.96;83.34;102582.13;4896366;29;20100;-68
2022/07/10 05:17:57;;;;;;;6.07;2.60;;;;;;;13.99;83.48;102588.00;4896125;29;20375;-68
2022/07/10 05:20:22;;;;;;;7.30;2.58;;;;;;;14.03;83.54;102577.72;4879290;29;20036;-68
2022/07/10 05:22:48;;;;;;;3.92;2.13;;;;;;;14.07;83.22;102575.50;4895995;29;20096;-68
2022/07/10 05:25:13;;;;;;;7.88;2.45;;;;;;;14.12;83.46;102574.00;4896171;29;20062;-68
2022/07/10 05:27:38;;;;;;;6.95;2.58;;;;;;;14.16;83.59;102569.94;4895966;29;20029;-68
2022/07/10 05:30:04;;;;;;;5.68;2.17;;;;;;;14.19;83.00;102572.25;4895828;29;20028;-68
2022/07/10 05:32:30;;;;;;;4.57;2.22;;;;;;;14.17;83.25;102573.44;4894587;29;20115;-69
2022/07/10 05:34:58;;;;;;;8.52;2.50;;;;;;;14.18;83.66;102578.63;4895840;29;20503;-68
2022/07/10 05:37:24;;;;;;;6.22;2.00;;;;;;;14.23;83.16;102587.00;4895563;29;20071;-68
2022/07/10 05:39:49;;;;;;;10.38;2.83;;;;;;;14.23;83.18;102578.94;4895799;29;20124;-68
2022/07/10 05:42:14;;;;;;;5.82;1.95;;;;;;;14.14;82.76;102561.22;4895651;29;20124;-68
2022/07/10 05:44:39;;;;;;;4.88;2.42;;;;;;;14.14;83.25;102577.31;4895609;29;20036;-68
2022/07/10 05:47:06;;;;;;;4.28;3.03;;;;;;;14.09;83.75;102573.50;4878322;29;20043;-68
2022/07/10 05:49:32;;;;;;;8.68;2.92;;;;;;;14.05;83.55;102578.41;4894725;29;20033;-68
2022/07/10 05:51:57;;;;;;;7.07;3.28;;;;;;;14.03;83.75;102578.56;4895275;29;20028;-68
2022/07/10 05:54:23;;;;;;;7.22;2.90;;;;;;;14.03;83.71;102580.41;4895361;29;20548;-68
2022/07/10 05:56:48;;;;;;;8.43;2.92;;;;;;;14.09;84.02;102581.53;4895007;29;20047;-68
2022/07/10 05:59:14;;;;;;;8.02;3.30;;;;;;;14.16;83.65;102577.16;4878058;29;20095;-68
2022/07/10 06:01:40;;;;;;;7.25;2.90;;;;;;;14.28;83.17;102572.19;4895334;29;20037;-68
2022/07/10 06:04:05;;;;;;;3.92;2.63;;;;;;;14.28;82.87;102556.94;4895288;29;20120;-68
2022/07/10 06:06:31;;;;;;;8.75;3.65;;;;;;;14.51;82.81;102564.13;4895091;29;20124;-68
2022/07/10 06:08:56;;;;;;;9.25;3.20;;;;;;;14.57;81.75;102571.50;4895280;29;20039;-68
2022/07/10 06:11:22;;;;;;;4.47;1.98;;;;;;;14.68;82.11;102573.75;4895159;29;20052;-68
2022/07/10 06:13:47;;;;;;;5.47;2.88;;;;;;;14.80;81.63;102574.13;4894965;29;20115;-68
2022/07/10 06:16:12;;;;;;;4.38;2.00;;;;;;;14.90;81.42;102575.53;4895005;29;20036;-68
2022/07/10 06:18:38;;;;;;;7.70;2.90;;;;;;;15.03;81.22;102582.16;4894896;29;20089;-68
2022/07/10 06:21:03;;;;;;;5.22;2.10;;;;;;;15.13;80.09;102582.72;4894938;29;20032;-68
2022/07/10 06:23:29;;;;;;;5.85;1.85;;;;;;;15.28;80.29;102580.88;4895016;29;20040;-68
2022/07/10 06:25:54;;;;;;;4.60;2.60;;;;;;;15.47;79.21;102581.34;4877933;29;20567;-68
2022/07/10 06:28:19;;;;;;;8.80;3.67;;;;;;;15.62;80.45;102575.94;4894819;29;20044;-68
2022/07/10 06:30:48;;;;;;;7.05;2.35;;;;;;;15.69;80.32;102572.34;4894844;29;20075;-68
2022/07/10 06:33:13;;;;;;;4.45;2.03;;;;;;;15.79;79.08;102569.34;4894490;29;20036;-68
2022/07/10 06:35:39;;;;;;;7.68;2.22;;;;;;;15.90;78.55;102566.19;4894781;29;20033;-72
2022/07/10 06:38:04;;;;;;;7.93;2.65;;;;;;;16.03;78.19;102570.03;4894630;29;20037;-72
2022/07/10 06:40:35;;;;;;;9.82;3.15;;;;;;;16.03;76.20;102575.41;4877735;29;20068;-72
2022/07/10 06:43:00;;;;;;;6.38;2.13;;;;;;;15.97;76.70;102577.00;4894213;29;20032;-74
2022/07/10 06:45:25;;;;;;;6.28;2.55;;;;;;;15.97;77.32;102579.69;4894849;29;20032;-73
2022/07/10 06:47:57;;;;;;;8.57;2.83;;;;;;;16.01;77.05;102572.91;4894871;29;20036;-72
2022/07/10 06:50:25;;;;;;;10.90;3.40;;;;;;;16.09;77.12;102567.41;4893826;29;20042;-73
2022/07/10 06:52:50;;;;;;;3.00;1.67;;;;;;;16.19;75.99;102569.75;4874331;29;20028;-72
2022/07/10 06:55:18;;;;;;;4.93;1.80;;;;;;;16.32;77.87;102569.94;4889836;29;20496;-73
2022/07/10 06:57:43;;;;;;;7.22;3.47;;;;;;;16.39;75.39;102569.97;4889918;29;20052;-73
2022/07/10 07:00:10;;;;;;;8.10;1.85;;;;;;;16.47;73.37;102569.00;4890020;29;20388;-71
2022/07/10 07:02:35;;;;;;;10.80;2.20;;;;;;;16.57;73.12;102564.94;4890146;29;20052;-72
2022/07/10 07:05:01;;;;;;;4.00;2.65;;;;;;;16.66;72.97;102573.72;4890671;29;20055;-71
2022/07/10 07:07:27;;;;;;;7.53;2.10;;;;;;;16.75;72.95;102559.09;4890231;29;20058;-70
2022/07/10 07:09:52;;;;;;;5.75;2.30;;;;;;;16.83;72.78;102566.22;4872114;29;20376;-70
2022/07/10 07:12:18;;;;;;;7.90;2.20;;;;;;;16.82;72.32;102570.78;4889884;29;20025;-71
2022/07/10 07:14:44;;;;;;;6.22;1.80;;;;;;;16.76;72.22;102576.09;4887971;29;20036;-72
2022/07/10 07:17:11;;;;;;;4.47;1.60;;;;;;;16.67;73.15;102577.28;4874970;29;20168;-72
2022/07/10 07:25:09;;;;;;;2.90;1.80;;;;;;;16.52;74.27;102571.94;4894431;29;20452;-73
2022/07/10 07:27:36;;;;;;;5.10;2.30;;;;;;;16.57;73.07;102578.41;4894173;29;20077;-73
2022/07/10 07:30:06;;;;;;;4.28;2.10;;;;;;;16.64;73.63;102581.19;4894062;29;20556;-72
2022/07/10 07:32:32;;;;;;;6.85;2.38;;;;;;;16.62;74.80;102578.66;4894166;29;20396;-72
2022/07/10 07:34:58;;;;;;;8.77;1.95;;;;;;;16.65;73.73;102580.16;4894082;29;20032;-72
2022/07/10 07:37:37;;;;;;;3.40;1.77;;;;;;;16.64;72.81;102582.00;4893977;29;20047;-71
2022/07/10 07:40:08;;;;;;;8.95;2.17;;;;;;;16.65;72.35;102580.16;4894034;29;20064;-71
2022/07/10 07:42:33;;;;;;;5.80;1.75;;;;;;;16.59;74.43;102581.75;4893950;29;20028;-71
2022/07/10 07:44:59;;;;;;;5.70;2.03;;;;;;;16.55;74.39;102582.34;4893867;29;20036;-71
2022/07/10 07:47:24;;;;;;;4.22;2.05;;;;;;;16.56;74.05;102586.72;4893854;29;20043;-71
2022/07/10 07:49:50;;;;;;;10.68;2.78;;;;;;;16.55;74.20;102580.47;4893691;29;20032;-71
2022/07/10 07:52:15;;;;;;;11.52;2.90;;;;;;;16.56;75.56;102579.47;4893597;29;20025;-71
2022/07/10 07:54:40;;;;;;;5.25;2.13;;;;;;;16.61;74.20;102578.84;4876826;29;20496;-71
2022/07/10 07:57:06;;;;;;;8.45;2.63;;;;;;;16.60;73.93;102580.72;4897333;29;20029;-71
2022/07/10 07:59:31;;;;;;;8.02;2.60;;;;;;;16.55;74.21;102574.25;4897740;29;20107;-70
2022/07/10 08:01:57;;;;;;;6.00;3.88;;;;;;;16.53;74.87;102582.53;4896885;29;20056;-71
2022/07/10 08:04:22;;;;;;;7.57;2.33;;;;;;;16.50;75.37;102580.22;4897624;29;20127;-71
2022/07/10 08:06:51;;;;;;;7.57;3.33;;;;;;;16.48;74.53;102584.13;4897404;29;20535;-71
2022/07/10 08:09:17;;;;;;;6.00;2.42;;;;;;;16.46;74.63;102580.81;4897424;29;20041;-71
2022/07/10 08:11:43;;;;;;;7.75;2.67;;;;;;;16.44;75.42;102578.31;4897443;29;20051;-71
2022/07/10 08:14:08;;;;;;;9.30;2.45;;;;;;;16.43;76.51;102568.56;4897279;29;20096;-72
2022/07/10 08:16:33;;;;;;;8.60;2.50;;;;;;;16.40;76.40;102564.41;4897197;29;20131;-72
2022/07/10 08:18:59;;;;;;;5.88;2.05;;;;;;;16.43;75.51;102571.25;4880301;29;20071;-72
2022/07/10 08:21:25;;;;;;;7.53;2.85;;;;;;;16.42;75.71;102589.25;4880415;29;20416;-72
2022/07/10 08:23:50;;;;;;;6.57;3.40;;;;;;;16.41;75.51;102584.91;4897006;29;20088;-72
2022/07/10 08:26:15;;;;;;;8.77;3.35;;;;;;;16.40;75.75;102577.88;4897020;29;20032;-72
2022/07/10 08:28:41;;;;;;;7.85;2.95;;;;;;;16.42;75.81;102577.66;4897009;29;20041;-72
2022/07/10 08:31:06;;;;;;;8.35;2.28;;;;;;;16.43;76.60;102576.66;4897014;29;20036;-72
2022/07/10 08:33:31;;;;;;;5.85;2.78;;;;;;;16.48;76.32;102589.50;4897165;29;20032;-72
2022/07/10 08:36:00;;;;;;;11.13;3.65;;;;;;;16.54;76.90;102578.81;4897089;29;20089;-72
2022/07/10 08:38:25;;;;;;;4.53;2.40;;;;;;;16.57;76.67;102575.72;4897088;29;20039;-72
2022/07/10 08:40:55;;;;;;;6.80;2.65;;;;;;;16.57;74.61;102570.34;4896819;29;20932;-72
2022/07/10 08:43:21;;;;;;;5.82;2.15;;;;;;;16.60;74.61;102575.34;4896920;29;20498;-72
2022/07/10 08:45:49;;;;;;;3.30;2.58;;;;;;;16.65;74.71;102574.75;4896796;29;20052;-72
2022/07/10 08:48:21;;;;;;;4.38;2.17;;;;;;;16.68;75.01;102579.75;4895910;29;20099;-72
2022/07/10 08:50:48;;;;;;;8.00;2.90;;;;;;;16.79;74.73;102586.50;4896837;29;20082;-72
2022/07/10 08:53:19;;;;;;;5.40;2.22;;;;;;;16.80;74.56;102585.50;4896628;29;20028;-72
2022/07/10 08:55:44;;;;;;;8.07;3.60;;;;;;;16.80;75.12;102588.19;4896417;29;20054;-72
2022/07/10 08:58:11;;;;;;;5.88;2.42;;;;;;;16.78;75.67;102585.66;4896247;29;20123;-72
2022/07/10 09:00:37;;;;;;;9.00;3.00;;;;;;;16.76;75.21;102586.88;4896533;29;20037;-73
2022/07/10 09:03:02;;;;;;;7.22;2.72;;;;;;;16.76;75.47;102589.56;4895980;29;20552;-72
2022/07/10 09:05:28;;;;;;;7.50;4.00;;;;;;;16.74;75.23;102587.06;4896319;29;20465;-73
2022/07/10 09:07:54;;;;;;;7.00;2.65;;;;;;;16.73;74.46;102584.56;4896161;29;20033;-73
2022/07/10 09:10:23;;;;;;;4.45;2.42;;;;;;;16.68;75.26;102577.06;4896221;29;20052;-73
2022/07/10 09:12:53;;;;;;;7.13;3.28;;;;;;;16.69;75.67;102580.56;4896257;29;20037;-73
2022/07/10 09:15:19;;;;;;;7.15;2.83;;;;;;;16.72;74.74;102574.81;4895733;29;20056;-73
2022/07/10 09:17:52;;;;;;;6.35;2.78;;;;;;;16.82;75.39;102575.31;4896011;29;20465;-73
2022/07/10 09:20:46;;;;;;;14.75;2.65;;;;;;;16.89;74.57;102570.81;4895875;29;20478;-73
2022/07/10 09:23:22;;;;;;;7.38;2.63;;;;;;;16.97;75.24;102570.66;4892646;29;20049;-73
2022/07/10 09:25:50;;;;;;;10.70;4.18;;;;;;;17.00;74.86;102564.91;4895926;29;20601;-73
2022/07/10 09:28:23;;;;;;;6.88;2.75;;;;;;;17.14;73.77;102568.50;4895920;29;20039;-73
2022/07/10 09:30:49;;;;;;;9.88;3.10;;;;;;;17.27;72.34;102559.66;4895485;29;20536;-72
2022/07/10 09:33:25;;;;;;;6.45;2.90;;;;;;;17.54;72.69;102552.53;4894613;29;20625;-73
2022/07/10 09:38:44;;;;;;;4.40;2.63;;;;;;;18.18;70.30;102548.56;4892665;29;20051;-71
2022/07/10 09:41:25;;;;;;;5.07;2.92;;;;;;;18.14;69.48;102544.63;4891681;29;21034;-70
2022/07/10 09:43:56;;;;;;;10.82;3.35;;;;;;;18.03;70.61;102543.38;4892202;29;20028;-77
2022/07/10 09:46:41;;;;;;;5.82;2.40;;;;;;;17.91;71.30;102545.00;4881114;29;20631;-73
2022/07/10 09:49:11;;;;;;;5.78;2.65;;;;;;;17.77;71.71;102543.28;4891650;29;20111;-72
2022/07/10 09:51:36;;;;;;;9.50;3.53;;;;;;;17.74;72.72;102545.34;4891435;29;20068;-71
2022/07/10 09:54:05;;;;;;;3.65;2.22;;;;;;;17.76;72.14;102537.03;4891774;29;20094;-75
2022/07/10 09:56:53;;;;;;;4.60;2.40;;;;;;;17.89;71.17;102538.97;4891715;29;20112;-72
2022/07/10 09:59:20;;;;;;;4.57;3.33;;;;;;;18.05;71.42;102537.75;4890805;29;20044;-73
2022/07/10 10:01:48;;;;;;;5.25;2.47;;;;;;;18.23;71.52;102540.69;4891341;29;20437;-74
2022/07/10 10:04:24;;;;;;;2.25;2.05;;;;;;;18.22;70.43;102544.44;4890617;29;20476;-74
2022/07/10 10:06:54;;;;;;;6.05;2.60;;;;;;;18.13;70.52;102541.09;4891551;29;20036;-73
2022/07/10 10:09:26;;;;;;;4.30;2.65;;;;;;;18.06;70.30;102542.13;4874053;29;20495;-73
2022/07/10 10:12:05;;;;;;;10.10;2.50;;;;;;;18.04;71.30;102544.19;4891277;29;20038;-73
2022/07/10 10:14:33;;;;;;;6.13;3.22;;;;;;;18.07;70.75;102560.81;4891371;29;20079;-73
2022/07/10 10:17:00;;;;;;;7.85;2.80;;;;;;;18.21;70.61;102545.47;4890385;29;20035;-73
2022/07/10 10:22:12;;;;;;;7.00;3.35;;;;;;;18.77;70.45;102539.66;4891450;29;20596;-72
2022/07/10 10:24:38;;;;;;;7.13;3.47;;;;;;;19.08;68.00;102534.63;4890794;29;20453;-72
2022/07/10 10:27:06;;;;;;;8.98;3.38;;;;;;;19.30;66.50;102543.28;4891103;29;20043;-73
2022/07/10 10:29:34;;;;;;;10.00;3.97;;;;;;;19.43;67.14;102524.31;4890666;29;20033;-73
2022/07/10 10:32:01;;;;;;;4.00;2.88;;;;;;;19.39;65.45;102539.31;4890717;29;20103;-72
2022/07/10 10:34:42;;;;;;;3.95;2.72;;;;;;;19.20;66.76;102532.91;4890863;29;20465;-73
2022/07/10 10:37:32;;;;;;;5.00;2.60;;;;;;;19.27;66.72;102534.56;4890955;29;20477;-70
2022/07/10 10:39:57;;;;;;;6.43;2.83;;;;;;;19.35;65.72;102532.66;4878293;29;20039;-72
2022/07/10 10:42:42;;;;;;;2.78;2.53;;;;;;;19.34;66.54;102542.66;4890531;29;20036;-71
2022/07/10 10:45:31;;;;;;;3.85;2.10;;;;;;;19.40;67.01;102539.09;4891274;29;20063;-72
2022/07/10 10:47:58;;;;;;;4.05;2.47;;;;;;;19.55;64.47;102535.31;4894382;29;20040;-73
2022/07/10 10:50:45;;;;;;;4.72;2.40;;;;;;;19.76;65.83;102528.78;4894611;29;20032;-73
2022/07/10 10:53:15;;;;;;;4.15;2.20;;;;;;;19.94;64.22;102528.88;4894583;29;20024;-73
2022/07/10 10:56:02;;;;;;;7.43;2.28;;;;;;;19.96;64.97;102520.50;4894426;29;20040;-68
2022/07/10 10:58:35;;;;;;;2.35;2.15;;;;;;;19.92;62.95;102528.25;4880295;29;20478;-68
2022/07/10 11:01:05;;;;;;;6.88;2.67;;;;;;;19.98;66.05;102513.81;4894453;29;20035;-68
2022/07/10 11:03:30;;;;;;;3.30;2.10;;;;;;;19.97;62.26;102508.63;4877432;29;20112;-68
2022/07/10 11:05:56;;;;;;;1.90;1.80;;;;;;;20.02;63.04;102508.81;4877071;29;20077;-67
2022/07/10 11:08:38;;;;;;;4.22;1.70;;;;;;;20.17;63.92;102511.19;4894110;29;20025;-68
2022/07/10 11:11:32;;;;;;;4.82;2.20;;;;;;;20.36;65.00;102508.31;4893972;29;20499;-67
2022/07/10 11:13:58;;;;;;;4.03;2.63;;;;;;;20.50;63.87;102506.31;4893998;29;20515;-67
2022/07/10 11:16:27;;;;;;;4.10;2.58;;;;;;;20.53;64.07;102503.16;4894263;29;20060;-67
2022/07/10 11:18:53;;;;;;;6.25;2.35;;;;;;;20.51;63.78;102505.28;4894046;29;20370;-69
2022/07/10 11:21:23;;;;;;;3.83;3.22;;;;;;;20.40;62.44;102503.28;4894147;29;20361;-67
2022/07/10 11:24:20;;;;;;;2.63;2.20;;;;;;;20.34;63.58;102504.19;4894135;29;20029;-68
2022/07/10 11:27:39;;;;;;;12.25;2.47;;;;;;;20.34;65.00;102505.00;4894130;29;20029;-67
2022/07/10 11:30:04;;;;;;;3.58;2.10;;;;;;;20.30;62.50;102514.66;4802082;29;20265;-67
2022/07/10 11:32:30;;;;;;;5.40;2.08;;;;;;;20.29;62.65;102512.97;4890016;29;20210;-67
2022/07/10 11:34:55;;;;;;;5.05;1.92;;;;;;;20.30;63.34;102502.94;4898098;29;20076;-67
2022/07/10 11:37:22;;;;;;;7.88;2.70;;;;;;;20.31;64.08;102505.44;4898048;29;20041;-67
2022/07/10 11:39:47;;;;;;;7.40;2.47;;;;;;;20.40;64.34;102511.41;4897944;29;20061;-67
2022/07/10 11:42:12;;;;;;;4.90;2.95;;;;;;;20.42;61.66;102495.75;4897869;29;20136;-67